Flight Track Log - Related Links

Times and Time Zones

All times are in EDT time to prevent confusion due to time zone crossing. See the KAP46 flight status page for this flight to view local times or setup timezone preferences in your user account.

Time Position Orientation Groundspeed Altitude Reporting Facility
EDT Latitude Longitude Course Direction KTS MPH feet Rate Location/Type
Fri 05:18:43 PM 44.6422 -74.6486 161° South 135 155 6,800  Level Boston Center
Fri 05:19:43 PM 44.6050 -74.6356 166° South 141 162 7,300 321 Climbing Boston Center
Fri 05:20:54 PM 44.5681 -74.6108 155° Southeast 146 168 7,500 136 Climbing Boston Center
Fri 05:21:55 PM 44.5144 -74.5828 160° South 158 182 7,600 50 Climbing Boston Center
Fri 05:22:55 PM 44.4689 -74.5636 163° South 170 196 7,600  Level Boston Center
Fri 05:23:55 PM 44.4233 -74.5506 168° South 170 196 7,600 50 Level Boston Center
Fri 05:24:00 PM 44.7032 -74.7300 161° South  Level Estimated
Fri 05:24:55 PM 44.3797 -74.5403 170° South 170 196 7,700  Level Boston Center
Fri 05:25:55 PM 44.3342 -74.5211 163° South 164 189 7,500 50 Descending Boston Center
Fri 05:26:55 PM 44.2950 -74.4994 158° South 164 189 7,800 50 Climbing Boston Center
Fri 05:27:55 PM 44.2517 -74.4719 156° South 164 189 7,600 -100 Descending Boston Center
Fri 05:28:55 PM 44.2083 -74.4531 163° South 169 194 7,600  Level Boston Center
Fri 05:29:55 PM 44.1650 -74.4314 160° South 164 189 7,600 -50 Level Boston Center
Fri 05:30:55 PM 44.1214 -74.4094 160° South 164 189 7,500 -50 Descending Boston Center
Fri 05:31:55 PM 44.0781 -74.3967 168° South 164 189 7,500 50 Level Boston Center
Fri 05:32:55 PM 44.0367 -74.3750 159° South 164 189 7,600 50 Climbing Boston Center
Fri 05:33:55 PM 43.9933 -74.3506 158° South 164 189 7,600 -50 Level Boston Center
Fri 05:34:55 PM 43.9500 -74.3289 160° South 164 189 7,500 -50 Descending Boston Center
Fri 05:35:55 PM 43.9064 -74.3103 163° South 164 189 7,500  Level Boston Center
Fri 05:36:55 PM 43.8631 -74.2858 158° South 164 189 7,500  Level Boston Center
Fri 05:37:55 PM 43.8175 -74.2700 166° South 164 189 7,500 50 Level Boston Center
Fri 05:38:55 PM 43.7742 -74.2517 163° South 164 189 7,600 50 Climbing Boston Center
Fri 05:39:55 PM 43.7308 -74.2214 153° Southeast 164 189 7,600 -50 Level Boston Center
Fri 05:40:55 PM 43.6892 -74.2058 165° South 169 194 7,500 -50 Descending Boston Center
Fri 05:41:55 PM 43.6414 -74.1989 174° South 169 194 7,500  Level Boston Center
Fri 05:42:55 PM 43.5958 -74.1947 176° South 164 189 7,500 -50 Level Boston Center
Fri 05:43:55 PM 43.5503 -74.1731 161° South 164 189 7,400  Descending Boston Center
Fri 05:44:55 PM 43.5069 -74.1433 154° Southeast 164 189 7,500 100 Climbing Boston Center
Fri 05:45:55 PM 43.4656 -74.1164 155° Southeast 169 194 7,600  Climbing Boston Center
Fri 05:46:55 PM 43.4158 -74.0894 159° South 169 194 7,500 -50 Descending Boston Center
Fri 05:47:55 PM 43.3744 -74.0767 167° South 169 194 7,500 -250 Level Boston Center
Fri 05:48:55 PM 43.3206 -74.0525 162° South 169 194 7,000 -400 Descending Boston Center
Fri 05:49:55 PM 43.2772 -74.0258 156° South 181 208 6,700 -400 Descending Boston Center
Fri 05:50:55 PM 43.2253 -74.0044 163° South 186 214 6,200 -500 Descending Boston Center
Fri 05:51:55 PM 43.1797 -73.9861 164° South 186 214 5,700 -450 Descending Boston Center
Fri 05:52:55 PM 43.1281 -73.9678 165° South 181 208 5,300 -540 Descending Boston Center
Fri 05:53:35 PM 43.0947 -73.9583 168° South 185 213 4,800 -561 Descending Boston Center
Fri 05:54:42 PM 43.0367 -73.9369 165° South 189 217 4,300 -469 Descending Boston Center
Fri 05:55:43 PM 42.9869 -73.9161 163° South 182 209 3,800 -365 Descending Boston Center
Fri 05:56:37 PM 42.9433 -73.8981 163° South 179 206 3,600 -157 Descending Boston Center
Fri 05:57:38 PM 42.8975 -73.8939 176° South 164 189 3,500 -99 Descending Boston Center
Fri 05:58:38 PM 42.8539 -73.8958 182° South 161 185 3,400 -99 Descending Boston Center
Fri 05:59:39 PM 42.8139 -73.9203 204° Southwest 158 182 3,300 -155 Descending Boston Center
Fri 06:00:34 PM 42.7719 -73.9364 196° South 177 204 3,100 -310 Descending Boston Center
Fri 06:01:35 PM 42.7264 -73.9211 166° South 168 193 2,700 -397 Descending Boston Center
Fri 06:02:35 PM 42.6869 -73.8947 154° Southeast 149 171 2,300 -331 Descending Boston Center
Fri 06:03:42 PM 42.6564 -73.8544 136° Southeast 150 173 2,000 -281 Descending Boston Center
Fri 06:04:43 PM 42.6694 -73.8067 70° East 150 173 1,700 -541 Descending Boston Center
Fri 06:05:44 PM 42.7111 -73.8078 359° North 141 162 900 -787 Descending Boston Center
Fri 06:07:00 PM 42.7491 -73.8020 14° North  Level Estimated
Fri 06:14:00 PM 42.7491 -73.8020 170° South  Level Estimated
Fri 06:15:00 PM 42.7491 -73.8020 170° South  Level Estimated
Fri 06:16:00 PM 42.7491 -73.8020 170° South  Level Estimated

Login

Don't have an account? Register now (free) for customized features, flight alerts, and more!